sensor_id;sensor_type;location;lat;lon;timestamp;P1;durP1;ratioP1;P2;durP2;ratioP2
25870;SDS011;13689;48.590;7.752;2023-12-20T00:00:05;12.98;;;6.15;;
25870;SDS011;13689;48.590;7.752;2023-12-20T00:02:31;15.13;;;6.50;;
25870;SDS011;13689;48.590;7.752;2023-12-20T00:04:56;11.82;;;6.30;;
25870;SDS011;13689;48.590;7.752;2023-12-20T00:07:22;13.13;;;6.30;;
25870;SDS011;13689;48.590;7.752;2023-12-20T00:09:47;14.45;;;6.70;;
25870;SDS011;13689;48.590;7.752;2023-12-20T00:12:13;18.70;;;8.60;;
25870;SDS011;13689;48.590;7.752;2023-12-20T00:14:39;11.27;;;5.85;;
25870;SDS011;13689;48.590;7.752;2023-12-20T00:17:04;14.93;;;6.95;;
25870;SDS011;13689;48.590;7.752;2023-12-20T00:19:30;10.85;;;6.05;;
25870;SDS011;13689;48.590;7.752;2023-12-20T00:21:55;11.05;;;5.55;;
25870;SDS011;13689;48.590;7.752;2023-12-20T00:24:21;16.10;;;7.78;;
25870;SDS011;13689;48.590;7.752;2023-12-20T00:26:47;14.70;;;5.88;;
25870;SDS011;13689;48.590;7.752;2023-12-20T00:29:12;14.73;;;7.63;;
25870;SDS011;13689;48.590;7.752;2023-12-20T00:31:38;15.07;;;6.97;;
25870;SDS011;13689;48.590;7.752;2023-12-20T00:34:03;10.35;;;6.38;;
25870;SDS011;13689;48.590;7.752;2023-12-20T00:36:29;14.23;;;6.70;;
25870;SDS011;13689;48.590;7.752;2023-12-20T00:38:54;12.68;;;6.60;;
25870;SDS011;13689;48.590;7.752;2023-12-20T00:41:20;13.27;;;6.47;;
25870;SDS011;13689;48.590;7.752;2023-12-20T00:43:46;12.70;;;7.03;;
25870;SDS011;13689;48.590;7.752;2023-12-20T00:46:11;12.10;;;6.75;;
25870;SDS011;13689;48.590;7.752;2023-12-20T00:48:37;13.52;;;6.80;;
25870;SDS011;13689;48.590;7.752;2023-12-20T00:51:03;11.25;;;6.30;;
25870;SDS011;13689;48.590;7.752;2023-12-20T00:53:28;10.80;;;6.10;;
25870;SDS011;13689;48.590;7.752;2023-12-20T00:55:54;12.20;;;6.35;;
25870;SDS011;13689;48.590;7.752;2023-12-20T00:58:20;16.95;;;6.88;;
25870;SDS011;13689;48.590;7.752;2023-12-20T01:00:45;13.63;;;7.05;;
25870;SDS011;13689;48.590;7.752;2023-12-20T01:03:11;16.23;;;7.10;;
25870;SDS011;13689;48.590;7.752;2023-12-20T01:05:37;15.38;;;6.60;;
25870;SDS011;13689;48.590;7.752;2023-12-20T01:08:03;12.65;;;6.95;;
25870;SDS011;13689;48.590;7.752;2023-12-20T01:10:29;13.40;;;7.07;;
25870;SDS011;13689;48.590;7.752;2023-12-20T01:12:55;13.57;;;6.30;;
25870;SDS011;13689;48.590;7.752;2023-12-20T01:15:20;15.00;;;7.57;;
25870;SDS011;13689;48.590;7.752;2023-12-20T01:17:46;17.38;;;6.95;;
25870;SDS011;13689;48.590;7.752;2023-12-20T01:20:12;15.63;;;7.38;;
25870;SDS011;13689;48.590;7.752;2023-12-20T01:22:37;12.60;;;6.95;;
25870;SDS011;13689;48.590;7.752;2023-12-20T01:25:03;13.85;;;6.72;;
25870;SDS011;13689;48.590;7.752;2023-12-20T01:27:29;11.05;;;6.30;;
25870;SDS011;13689;48.590;7.752;2023-12-20T01:29:56;11.93;;;6.88;;
25870;SDS011;13689;48.590;7.752;2023-12-20T01:32:22;10.95;;;6.50;;
25870;SDS011;13689;48.590;7.752;2023-12-20T01:34:47;10.45;;;5.85;;
25870;SDS011;13689;48.590;7.752;2023-12-20T01:37:13;11.45;;;6.57;;
25870;SDS011;13689;48.590;7.752;2023-12-20T01:39:39;13.48;;;6.95;;
25870;SDS011;13689;48.590;7.752;2023-12-20T01:42:04;15.25;;;6.93;;
25870;SDS011;13689;48.590;7.752;2023-12-20T01:44:30;12.65;;;6.60;;
25870;SDS011;13689;48.590;7.752;2023-12-20T01:46:55;14.20;;;6.85;;
25870;SDS011;13689;48.590;7.752;2023-12-20T01:49:22;12.18;;;6.90;;
25870;SDS011;13689;48.590;7.752;2023-12-20T01:51:49;14.15;;;6.97;;
25870;SDS011;13689;48.590;7.752;2023-12-20T01:54:15;16.80;;;6.82;;
25870;SDS011;13689;48.590;7.752;2023-12-20T01:56:41;14.55;;;7.32;;
25870;SDS011;13689;48.590;7.752;2023-12-20T01:59:07;14.10;;;6.72;;
25870;SDS011;13689;48.590;7.752;2023-12-20T02:01:34;11.38;;;6.25;;
25870;SDS011;13689;48.590;7.752;2023-12-20T02:04:00;11.23;;;6.50;;
25870;SDS011;13689;48.590;7.752;2023-12-20T02:06:29;13.68;;;6.88;;
25870;SDS011;13689;48.590;7.752;2023-12-20T02:08:57;10.18;;;6.22;;
25870;SDS011;13689;48.590;7.752;2023-12-20T02:11:23;10.68;;;5.20;;
25870;SDS011;13689;48.590;7.752;2023-12-20T02:13:50;16.67;;;6.38;;
25870;SDS011;13689;48.590;7.752;2023-12-20T02:16:15;14.48;;;6.43;;
25870;SDS011;13689;48.590;7.752;2023-12-20T02:18:42;12.55;;;6.07;;
25870;SDS011;13689;48.590;7.752;2023-12-20T02:21:09;12.88;;;6.45;;
25870;SDS011;13689;48.590;7.752;2023-12-20T02:23:35;13.00;;;5.68;;
25870;SDS011;13689;48.590;7.752;2023-12-20T02:26:01;11.98;;;5.95;;
25870;SDS011;13689;48.590;7.752;2023-12-20T02:28:27;12.50;;;5.97;;
25870;SDS011;13689;48.590;7.752;2023-12-20T02:30:53;12.20;;;7.03;;
25870;SDS011;13689;48.590;7.752;2023-12-20T02:33:19;12.20;;;6.57;;
25870;SDS011;13689;48.590;7.752;2023-12-20T02:35:44;11.45;;;5.70;;
25870;SDS011;13689;48.590;7.752;2023-12-20T02:38:10;16.00;;;6.20;;
25870;SDS011;13689;48.590;7.752;2023-12-20T02:40:35;9.70;;;5.97;;
25870;SDS011;13689;48.590;7.752;2023-12-20T02:43:01;12.38;;;5.82;;
25870;SDS011;13689;48.590;7.752;2023-12-20T02:45:27;12.30;;;6.00;;
25870;SDS011;13689;48.590;7.752;2023-12-20T02:47:52;17.85;;;6.90;;
25870;SDS011;13689;48.590;7.752;2023-12-20T02:50:18;12.48;;;5.97;;
25870;SDS011;13689;48.590;7.752;2023-12-20T02:52:47;12.20;;;6.63;;
25870;SDS011;13689;48.590;7.752;2023-12-20T02:55:12;12.45;;;6.05;;
25870;SDS011;13689;48.590;7.752;2023-12-20T02:57:38;11.82;;;6.28;;
25870;SDS011;13689;48.590;7.752;2023-12-20T03:00:07;9.68;;;5.97;;
25870;SDS011;13689;48.590;7.752;2023-12-20T03:02:34;11.88;;;6.07;;
25870;SDS011;13689;48.590;7.752;2023-12-20T03:05:00;11.65;;;5.80;;
25870;SDS011;13689;48.590;7.752;2023-12-20T03:07:25;11.82;;;6.05;;
25870;SDS011;13689;48.590;7.752;2023-12-20T03:09:51;12.90;;;6.43;;
25870;SDS011;13689;48.590;7.752;2023-12-20T03:12:17;11.95;;;6.07;;
25870;SDS011;13689;48.590;7.752;2023-12-20T03:14:43;8.98;;;5.72;;
25870;SDS011;13689;48.590;7.752;2023-12-20T03:17:09;9.30;;;5.43;;
25870;SDS011;13689;48.590;7.752;2023-12-20T03:19:35;11.05;;;5.80;;
25870;SDS011;13689;48.590;7.752;2023-12-20T03:22:00;12.85;;;5.78;;
25870;SDS011;13689;48.590;7.752;2023-12-20T03:24:26;12.65;;;5.78;;
25870;SDS011;13689;48.590;7.752;2023-12-20T03:26:52;13.00;;;5.95;;
25870;SDS011;13689;48.590;7.752;2023-12-20T03:29:18;10.07;;;5.50;;
25870;SDS011;13689;48.590;7.752;2023-12-20T03:31:43;13.57;;;6.32;;
25870;SDS011;13689;48.590;7.752;2023-12-20T03:34:09;11.07;;;6.05;;
25870;SDS011;13689;48.590;7.752;2023-12-20T03:36:35;10.25;;;5.10;;
25870;SDS011;13689;48.590;7.752;2023-12-20T03:39:01;10.05;;;5.72;;
25870;SDS011;13689;48.590;7.752;2023-12-20T03:41:26;8.93;;;5.18;;
25870;SDS011;13689;48.590;7.752;2023-12-20T03:43:52;8.32;;;5.18;;
25870;SDS011;13689;48.590;7.752;2023-12-20T03:46:17;11.90;;;5.57;;
25870;SDS011;13689;48.590;7.752;2023-12-20T03:48:43;13.85;;;5.82;;
25870;SDS011;13689;48.590;7.752;2023-12-20T03:51:09;12.20;;;5.57;;
25870;SDS011;13689;48.590;7.752;2023-12-20T03:53:34;11.48;;;5.65;;
25870;SDS011;13689;48.590;7.752;2023-12-20T03:56:00;11.07;;;5.22;;
25870;SDS011;13689;48.590;7.752;2023-12-20T03:58:26;10.75;;;4.88;;
25870;SDS011;13689;48.590;7.752;2023-12-20T04:00:51;8.88;;;5.13;;
25870;SDS011;13689;48.590;7.752;2023-12-20T04:03:17;8.82;;;5.15;;
25870;SDS011;13689;48.590;7.752;2023-12-20T04:05:42;8.65;;;4.90;;
25870;SDS011;13689;48.590;7.752;2023-12-20T04:08:08;10.43;;;5.30;;
25870;SDS011;13689;48.590;7.752;2023-12-20T04:10:34;8.90;;;4.68;;
25870;SDS011;13689;48.590;7.752;2023-12-20T04:13:00;7.72;;;4.88;;
25870;SDS011;13689;48.590;7.752;2023-12-20T04:15:26;10.85;;;5.07;;
25870;SDS011;13689;48.590;7.752;2023-12-20T04:17:51;10.02;;;4.97;;
25870;SDS011;13689;48.590;7.752;2023-12-20T04:20:17;9.25;;;4.50;;
25870;SDS011;13689;48.590;7.752;2023-12-20T04:22:43;8.15;;;4.78;;
25870;SDS011;13689;48.590;7.752;2023-12-20T04:25:08;9.80;;;4.32;;
25870;SDS011;13689;48.590;7.752;2023-12-20T04:27:34;8.43;;;4.05;;
25870;SDS011;13689;48.590;7.752;2023-12-20T04:30:00;9.68;;;4.97;;
25870;SDS011;13689;48.590;7.752;2023-12-20T04:32:25;9.27;;;4.47;;
25870;SDS011;13689;48.590;7.752;2023-12-20T04:34:51;7.80;;;4.32;;
25870;SDS011;13689;48.590;7.752;2023-12-20T04:37:17;9.52;;;4.35;;
25870;SDS011;13689;48.590;7.752;2023-12-20T04:39:42;7.75;;;4.43;;
25870;SDS011;13689;48.590;7.752;2023-12-20T04:42:08;10.35;;;4.57;;
25870;SDS011;13689;48.590;7.752;2023-12-20T04:44:33;6.70;;;4.13;;
25870;SDS011;13689;48.590;7.752;2023-12-20T04:46:59;9.75;;;4.30;;
25870;SDS011;13689;48.590;7.752;2023-12-20T04:49:25;7.32;;;3.83;;
25870;SDS011;13689;48.590;7.752;2023-12-20T04:51:50;7.95;;;4.25;;
25870;SDS011;13689;48.590;7.752;2023-12-20T04:54:16;7.60;;;4.47;;
25870;SDS011;13689;48.590;7.752;2023-12-20T04:56:42;6.07;;;3.83;;
25870;SDS011;13689;48.590;7.752;2023-12-20T04:59:07;10.30;;;4.55;;
25870;SDS011;13689;48.590;7.752;2023-12-20T05:01:33;13.10;;;4.35;;
25870;SDS011;13689;48.590;7.752;2023-12-20T05:03:59;7.70;;;3.80;;
25870;SDS011;13689;48.590;7.752;2023-12-20T05:06:24;7.28;;;3.95;;
25870;SDS011;13689;48.590;7.752;2023-12-20T05:08:50;6.55;;;3.75;;
25870;SDS011;13689;48.590;7.752;2023-12-20T05:11:15;6.60;;;3.88;;
25870;SDS011;13689;48.590;7.752;2023-12-20T05:13:41;6.47;;;3.58;;
25870;SDS011;13689;48.590;7.752;2023-12-20T05:16:07;8.70;;;4.35;;
25870;SDS011;13689;48.590;7.752;2023-12-20T05:18:34;8.32;;;4.55;;
25870;SDS011;13689;48.590;7.752;2023-12-20T05:20:59;10.52;;;4.30;;
25870;SDS011;13689;48.590;7.752;2023-12-20T05:23:25;11.02;;;5.07;;
25870;SDS011;13689;48.590;7.752;2023-12-20T05:25:51;7.03;;;4.05;;
25870;SDS011;13689;48.590;7.752;2023-12-20T05:28:16;10.30;;;4.70;;
25870;SDS011;13689;48.590;7.752;2023-12-20T05:30:42;9.88;;;4.78;;
25870;SDS011;13689;48.590;7.752;2023-12-20T05:33:08;9.90;;;4.38;;
25870;SDS011;13689;48.590;7.752;2023-12-20T05:35:34;8.88;;;4.55;;
25870;SDS011;13689;48.590;7.752;2023-12-20T05:38:00;7.88;;;4.25;;
25870;SDS011;13689;48.590;7.752;2023-12-20T05:40:25;7.05;;;3.95;;
25870;SDS011;13689;48.590;7.752;2023-12-20T05:42:51;8.98;;;4.20;;
25870;SDS011;13689;48.590;7.752;2023-12-20T05:45:16;7.63;;;4.10;;
25870;SDS011;13689;48.590;7.752;2023-12-20T05:47:42;5.60;;;4.10;;
25870;SDS011;13689;48.590;7.752;2023-12-20T05:50:08;7.18;;;3.60;;
25870;SDS011;13689;48.590;7.752;2023-12-20T05:52:34;7.43;;;3.40;;
25870;SDS011;13689;48.590;7.752;2023-12-20T05:54:59;5.47;;;3.15;;
25870;SDS011;13689;48.590;7.752;2023-12-20T05:57:28;8.90;;;3.92;;
25870;SDS011;13689;48.590;7.752;2023-12-20T05:59:53;6.65;;;3.70;;
25870;SDS011;13689;48.590;7.752;2023-12-20T06:02:19;5.65;;;3.67;;
25870;SDS011;13689;48.590;7.752;2023-12-20T06:04:45;6.95;;;3.13;;
25870;SDS011;13689;48.590;7.752;2023-12-20T06:07:13;8.65;;;2.97;;
25870;SDS011;13689;48.590;7.752;2023-12-20T06:09:40;6.55;;;3.17;;
25870;SDS011;13689;48.590;7.752;2023-12-20T06:12:06;5.50;;;3.42;;
25870;SDS011;13689;48.590;7.752;2023-12-20T06:14:32;5.72;;;3.05;;
25870;SDS011;13689;48.590;7.752;2023-12-20T06:16:58;3.03;;;2.65;;
25870;SDS011;13689;48.590;7.752;2023-12-20T06:19:23;3.88;;;2.78;;
25870;SDS011;13689;48.590;7.752;2023-12-20T06:21:49;6.35;;;2.47;;
25870;SDS011;13689;48.590;7.752;2023-12-20T06:24:14;3.88;;;2.47;;
25870;SDS011;13689;48.590;7.752;2023-12-20T06:26:40;3.20;;;2.70;;
25870;SDS011;13689;48.590;7.752;2023-12-20T06:29:06;4.47;;;2.88;;
25870;SDS011;13689;48.590;7.752;2023-12-20T06:31:32;5.68;;;2.53;;
25870;SDS011;13689;48.590;7.752;2023-12-20T06:33:58;6.38;;;2.78;;
25870;SDS011;13689;48.590;7.752;2023-12-20T06:36:25;3.88;;;2.00;;
25870;SDS011;13689;48.590;7.752;2023-12-20T06:38:51;3.78;;;2.50;;
25870;SDS011;13689;48.590;7.752;2023-12-20T06:41:16;2.15;;;1.95;;
25870;SDS011;13689;48.590;7.752;2023-12-20T06:43:42;2.33;;;1.90;;
25870;SDS011;13689;48.590;7.752;2023-12-20T06:46:08;4.72;;;1.80;;
25870;SDS011;13689;48.590;7.752;2023-12-20T06:48:34;3.28;;;2.20;;
25870;SDS011;13689;48.590;7.752;2023-12-20T06:51:00;3.78;;;2.00;;
25870;SDS011;13689;48.590;7.752;2023-12-20T06:53:29;3.45;;;2.30;;
25870;SDS011;13689;48.590;7.752;2023-12-20T06:55:55;2.35;;;1.55;;
25870;SDS011;13689;48.590;7.752;2023-12-20T06:58:24;2.10;;;1.80;;
25870;SDS011;13689;48.590;7.752;2023-12-20T07:00:50;2.83;;;2.10;;
25870;SDS011;13689;48.590;7.752;2023-12-20T07:03:16;4.80;;;2.22;;
25870;SDS011;13689;48.590;7.752;2023-12-20T07:05:42;3.80;;;2.72;;
25870;SDS011;13689;48.590;7.752;2023-12-20T07:08:08;3.88;;;2.90;;
25870;SDS011;13689;48.590;7.752;2023-12-20T07:10:35;12.02;;;4.95;;
25870;SDS011;13689;48.590;7.752;2023-12-20T07:13:01;8.23;;;3.97;;
25870;SDS011;13689;48.590;7.752;2023-12-20T07:15:26;5.13;;;3.30;;
25870;SDS011;13689;48.590;7.752;2023-12-20T07:17:52;2.72;;;2.10;;
25870;SDS011;13689;48.590;7.752;2023-12-20T07:20:18;2.60;;;2.20;;
25870;SDS011;13689;48.590;7.752;2023-12-20T07:22:43;9.43;;;2.17;;
25870;SDS011;13689;48.590;7.752;2023-12-20T07:25:09;2.58;;;1.92;;
25870;SDS011;13689;48.590;7.752;2023-12-20T07:27:35;7.10;;;2.33;;
25870;SDS011;13689;48.590;7.752;2023-12-20T07:30:01;4.10;;;2.20;;
25870;SDS011;13689;48.590;7.752;2023-12-20T07:32:26;6.35;;;3.08;;
25870;SDS011;13689;48.590;7.752;2023-12-20T07:34:52;4.47;;;2.70;;
25870;SDS011;13689;48.590;7.752;2023-12-20T07:37:18;10.40;;;3.13;;
25870;SDS011;13689;48.590;7.752;2023-12-20T07:39:44;8.95;;;3.78;;
25870;SDS011;13689;48.590;7.752;2023-12-20T07:42:09;6.75;;;4.07;;
25870;SDS011;13689;48.590;7.752;2023-12-20T07:44:35;10.40;;;4.43;;
25870;SDS011;13689;48.590;7.752;2023-12-20T07:47:01;8.88;;;4.60;;
25870;SDS011;13689;48.590;7.752;2023-12-20T07:49:27;11.57;;;4.60;;
25870;SDS011;13689;48.590;7.752;2023-12-20T07:51:53;9.02;;;4.63;;
25870;SDS011;13689;48.590;7.752;2023-12-20T07:54:18;9.48;;;4.97;;
25870;SDS011;13689;48.590;7.752;2023-12-20T07:56:45;12.52;;;4.53;;
25870;SDS011;13689;48.590;7.752;2023-12-20T07:59:11;12.97;;;5.23;;
25870;SDS011;13689;48.590;7.752;2023-12-20T08:01:37;18.92;;;5.13;;
25870;SDS011;13689;48.590;7.752;2023-12-20T08:04:02;7.90;;;5.13;;
25870;SDS011;13689;48.590;7.752;2023-12-20T08:06:28;9.02;;;5.00;;
25870;SDS011;13689;48.590;7.752;2023-12-20T08:08:53;11.93;;;4.80;;
25870;SDS011;13689;48.590;7.752;2023-12-20T08:11:19;10.93;;;5.22;;
25870;SDS011;13689;48.590;7.752;2023-12-20T08:13:45;8.82;;;4.72;;
25870;SDS011;13689;48.590;7.752;2023-12-20T08:16:10;13.32;;;5.18;;
25870;SDS011;13689;48.590;7.752;2023-12-20T08:18:38;9.57;;;5.18;;
25870;SDS011;13689;48.590;7.752;2023-12-20T08:21:04;15.65;;;5.15;;
25870;SDS011;13689;48.590;7.752;2023-12-20T08:23:32;17.42;;;5.90;;
25870;SDS011;13689;48.590;7.752;2023-12-20T08:25:58;12.15;;;5.95;;
25870;SDS011;13689;48.590;7.752;2023-12-20T08:28:23;11.73;;;6.15;;
25870;SDS011;13689;48.590;7.752;2023-12-20T08:30:49;13.50;;;6.60;;
25870;SDS011;13689;48.590;7.752;2023-12-20T08:33:18;14.98;;;5.88;;
25870;SDS011;13689;48.590;7.752;2023-12-20T08:35:44;13.50;;;5.93;;
25870;SDS011;13689;48.590;7.752;2023-12-20T08:38:09;18.48;;;6.10;;
25870;SDS011;13689;48.590;7.752;2023-12-20T08:40:35;10.77;;;5.05;;
25870;SDS011;13689;48.590;7.752;2023-12-20T08:43:00;9.23;;;5.53;;
25870;SDS011;13689;48.590;7.752;2023-12-20T08:45:26;14.75;;;6.15;;
25870;SDS011;13689;48.590;7.752;2023-12-20T08:47:52;15.07;;;5.93;;
25870;SDS011;13689;48.590;7.752;2023-12-20T08:50:17;14.20;;;5.35;;
25870;SDS011;13689;48.590;7.752;2023-12-20T08:52:43;18.73;;;4.55;;
25870;SDS011;13689;48.590;7.752;2023-12-20T08:55:09;9.00;;;4.78;;
25870;SDS011;13689;48.590;7.752;2023-12-20T08:57:38;14.48;;;4.28;;
25870;SDS011;13689;48.590;7.752;2023-12-20T09:00:03;11.52;;;3.72;;
25870;SDS011;13689;48.590;7.752;2023-12-20T09:02:29;8.68;;;3.53;;
25870;SDS011;13689;48.590;7.752;2023-12-20T09:04:55;14.77;;;3.63;;
25870;SDS011;13689;48.590;7.752;2023-12-20T09:07:27;13.45;;;3.90;;
25870;SDS011;13689;48.590;7.752;2023-12-20T09:09:55;11.40;;;3.78;;
25870;SDS011;13689;48.590;7.752;2023-12-20T09:12:21;11.23;;;4.60;;
25870;SDS011;13689;48.590;7.752;2023-12-20T09:14:47;13.07;;;4.38;;
25870;SDS011;13689;48.590;7.752;2023-12-20T09:17:13;6.70;;;3.80;;
25870;SDS011;13689;48.590;7.752;2023-12-20T09:19:40;10.25;;;3.00;;
25870;SDS011;13689;48.590;7.752;2023-12-20T09:22:06;8.88;;;2.58;;
25870;SDS011;13689;48.590;7.752;2023-12-20T09:24:32;10.48;;;2.60;;
25870;SDS011;13689;48.590;7.752;2023-12-20T09:26:58;14.65;;;3.13;;
25870;SDS011;13689;48.590;7.752;2023-12-20T09:29:23;9.75;;;2.67;;
25870;SDS011;13689;48.590;7.752;2023-12-20T09:31:49;16.55;;;2.97;;
25870;SDS011;13689;48.590;7.752;2023-12-20T09:34:15;8.38;;;2.75;;
25870;SDS011;13689;48.590;7.752;2023-12-20T09:36:42;9.50;;;2.88;;
25870;SDS011;13689;48.590;7.752;2023-12-20T09:39:14;11.32;;;3.22;;
25870;SDS011;13689;48.590;7.752;2023-12-20T09:41:44;10.90;;;3.20;;
25870;SDS011;13689;48.590;7.752;2023-12-20T09:44:13;8.15;;;2.22;;
25870;SDS011;13689;48.590;7.752;2023-12-20T09:46:42;9.00;;;3.15;;
25870;SDS011;13689;48.590;7.752;2023-12-20T09:49:09;7.68;;;2.70;;
25870;SDS011;13689;48.590;7.752;2023-12-20T09:51:35;9.40;;;2.65;;
25870;SDS011;13689;48.590;7.752;2023-12-20T09:54:03;7.25;;;2.00;;
25870;SDS011;13689;48.590;7.752;2023-12-20T09:56:29;5.82;;;2.22;;
25870;SDS011;13689;48.590;7.752;2023-12-20T09:58:55;7.70;;;2.30;;
25870;SDS011;13689;48.590;7.752;2023-12-20T10:01:21;11.15;;;3.13;;
25870;SDS011;13689;48.590;7.752;2023-12-20T10:03:47;10.70;;;3.05;;
25870;SDS011;13689;48.590;7.752;2023-12-20T10:06:15;9.48;;;3.38;;
25870;SDS011;13689;48.590;7.752;2023-12-20T10:08:41;14.82;;;3.92;;
25870;SDS011;13689;48.590;7.752;2023-12-20T10:11:06;13.27;;;4.35;;
25870;SDS011;13689;48.590;7.752;2023-12-20T10:13:32;10.48;;;4.57;;
25870;SDS011;13689;48.590;7.752;2023-12-20T10:15:59;16.67;;;4.43;;
25870;SDS011;13689;48.590;7.752;2023-12-20T10:18:25;11.02;;;4.97;;
25870;SDS011;13689;48.590;7.752;2023-12-20T10:20:53;17.85;;;4.88;;
25870;SDS011;13689;48.590;7.752;2023-12-20T10:23:19;12.75;;;4.78;;
25870;SDS011;13689;48.590;7.752;2023-12-20T10:25:52;9.32;;;4.97;;
25870;SDS011;13689;48.590;7.752;2023-12-20T10:28:22;22.35;;;4.60;;
25870;SDS011;13689;48.590;7.752;2023-12-20T10:30:50;12.52;;;4.47;;
25870;SDS011;13689;48.590;7.752;2023-12-20T10:33:25;13.65;;;4.93;;
25870;SDS011;13689;48.590;7.752;2023-12-20T10:35:53;16.15;;;4.10;;
25870;SDS011;13689;48.590;7.752;2023-12-20T10:38:20;10.85;;;4.28;;
25870;SDS011;13689;48.590;7.752;2023-12-20T10:40:45;16.63;;;4.28;;
25870;SDS011;13689;48.590;7.752;2023-12-20T10:43:11;12.15;;;4.07;;
25870;SDS011;13689;48.590;7.752;2023-12-20T10:45:38;9.68;;;4.00;;
25870;SDS011;13689;48.590;7.752;2023-12-20T10:48:04;14.15;;;4.35;;
25870;SDS011;13689;48.590;7.752;2023-12-20T10:50:30;18.02;;;4.55;;
25870;SDS011;13689;48.590;7.752;2023-12-20T10:52:56;15.10;;;4.25;;
25870;SDS011;13689;48.590;7.752;2023-12-20T10:55:24;18.90;;;4.60;;
25870;SDS011;13689;48.590;7.752;2023-12-20T10:58:09;16.98;;;3.70;;
25870;SDS011;13689;48.590;7.752;2023-12-20T11:00:39;20.52;;;3.70;;
25870;SDS011;13689;48.590;7.752;2023-12-20T11:03:08;14.02;;;4.88;;
25870;SDS011;13689;48.590;7.752;2023-12-20T11:05:39;17.17;;;4.65;;
25870;SDS011;13689;48.590;7.752;2023-12-20T11:11:34;16.52;;;3.85;;
25870;SDS011;13689;48.590;7.752;2023-12-20T11:14:12;13.48;;;3.40;;
25870;SDS011;13689;48.590;7.752;2023-12-20T11:16:44;12.57;;;4.07;;
25870;SDS011;13689;48.590;7.752;2023-12-20T11:19:11;14.05;;;4.25;;
25870;SDS011;13689;48.590;7.752;2023-12-20T11:21:38;14.30;;;4.30;;
25870;SDS011;13689;48.590;7.752;2023-12-20T11:24:05;11.45;;;4.25;;
25870;SDS011;13689;48.590;7.752;2023-12-20T11:26:31;11.48;;;3.60;;
25870;SDS011;13689;48.590;7.752;2023-12-20T11:34:59;23.15;;;2.67;;
25870;SDS011;13689;48.590;7.752;2023-12-20T11:37:34;17.55;;;2.97;;
25870;SDS011;13689;48.590;7.752;2023-12-20T11:40:02;12.68;;;2.42;;
25870;SDS011;13689;48.590;7.752;2023-12-20T11:42:33;14.95;;;2.10;;
25870;SDS011;13689;48.590;7.752;2023-12-20T11:45:02;13.80;;;2.67;;
25870;SDS011;13689;48.590;7.752;2023-12-20T11:47:28;13.07;;;2.58;;
25870;SDS011;13689;48.590;7.752;2023-12-20T11:49:56;14.13;;;2.22;;
25870;SDS011;13689;48.590;7.752;2023-12-20T11:52:22;16.40;;;2.85;;
25870;SDS011;13689;48.590;7.752;2023-12-20T11:54:47;11.98;;;2.80;;
25870;SDS011;13689;48.590;7.752;2023-12-20T11:57:13;12.52;;;2.42;;
25870;SDS011;13689;48.590;7.752;2023-12-20T11:59:39;16.23;;;2.65;;
25870;SDS011;13689;48.590;7.752;2023-12-20T12:02:05;13.27;;;2.58;;
25870;SDS011;13689;48.590;7.752;2023-12-20T12:04:31;7.82;;;2.35;;
25870;SDS011;13689;48.590;7.752;2023-12-20T12:06:56;6.90;;;2.17;;
25870;SDS011;13689;48.590;7.752;2023-12-20T12:09:22;8.57;;;2.28;;
25870;SDS011;13689;48.590;7.752;2023-12-20T12:11:48;6.85;;;1.88;;
25870;SDS011;13689;48.590;7.752;2023-12-20T12:14:14;22.10;;;2.95;;
25870;SDS011;13689;48.590;7.752;2023-12-20T12:16:41;15.82;;;2.67;;
25870;SDS011;13689;48.590;7.752;2023-12-20T12:19:14;9.68;;;2.03;;
25870;SDS011;13689;48.590;7.752;2023-12-20T12:21:46;7.95;;;2.20;;
25870;SDS011;13689;48.590;7.752;2023-12-20T12:24:11;13.35;;;2.47;;
25870;SDS011;13689;48.590;7.752;2023-12-20T12:26:37;10.45;;;1.70;;
25870;SDS011;13689;48.590;7.752;2023-12-20T12:29:03;12.00;;;2.65;;
25870;SDS011;13689;48.590;7.752;2023-12-20T12:31:28;9.15;;;1.80;;
25870;SDS011;13689;48.590;7.752;2023-12-20T12:33:55;6.38;;;2.00;;
25870;SDS011;13689;48.590;7.752;2023-12-20T12:36:21;6.65;;;2.10;;
25870;SDS011;13689;48.590;7.752;2023-12-20T12:38:47;17.20;;;1.90;;
25870;SDS011;13689;48.590;7.752;2023-12-20T12:41:13;13.52;;;2.35;;
25870;SDS011;13689;48.590;7.752;2023-12-20T12:43:40;6.82;;;1.63;;
25870;SDS011;13689;48.590;7.752;2023-12-20T12:46:06;14.65;;;1.70;;
25870;SDS011;13689;48.590;7.752;2023-12-20T12:48:32;15.10;;;1.95;;
25870;SDS011;13689;48.590;7.752;2023-12-20T12:50:58;8.30;;;1.92;;
25870;SDS011;13689;48.590;7.752;2023-12-20T12:53:25;11.07;;;1.60;;
25870;SDS011;13689;48.590;7.752;2023-12-20T12:55:51;6.32;;;1.85;;
25870;SDS011;13689;48.590;7.752;2023-12-20T12:58:18;10.73;;;1.60;;
25870;SDS011;13689;48.590;7.752;2023-12-20T13:00:44;8.55;;;1.52;;
25870;SDS011;13689;48.590;7.752;2023-12-20T13:03:09;4.97;;;1.17;;
25870;SDS011;13689;48.590;7.752;2023-12-20T13:05:35;11.85;;;1.70;;
25870;SDS011;13689;48.590;7.752;2023-12-20T13:08:00;7.80;;;2.00;;
25870;SDS011;13689;48.590;7.752;2023-12-20T13:10:26;11.02;;;2.20;;
25870;SDS011;13689;48.590;7.752;2023-12-20T13:12:52;14.40;;;2.35;;
25870;SDS011;13689;48.590;7.752;2023-12-20T13:15:17;8.10;;;2.08;;
25870;SDS011;13689;48.590;7.752;2023-12-20T13:17:43;11.68;;;2.13;;
25870;SDS011;13689;48.590;7.752;2023-12-20T13:20:11;7.95;;;1.95;;
25870;SDS011;13689;48.590;7.752;2023-12-20T13:22:36;8.02;;;1.25;;
25870;SDS011;13689;48.590;7.752;2023-12-20T13:25:02;15.95;;;1.85;;
25870;SDS011;13689;48.590;7.752;2023-12-20T13:27:28;9.48;;;1.42;;
25870;SDS011;13689;48.590;7.752;2023-12-20T13:29:54;7.20;;;1.13;;
25870;SDS011;13689;48.590;7.752;2023-12-20T13:32:19;5.20;;;1.40;;
25870;SDS011;13689;48.590;7.752;2023-12-20T13:34:45;20.30;;;1.58;;
25870;SDS011;13689;48.590;7.752;2023-12-20T13:37:10;7.85;;;1.20;;
25870;SDS011;13689;48.590;7.752;2023-12-20T13:39:36;4.50;;;1.23;;
25870;SDS011;13689;48.590;7.752;2023-12-20T13:42:02;9.43;;;1.95;;
25870;SDS011;13689;48.590;7.752;2023-12-20T13:44:28;10.15;;;1.75;;
25870;SDS011;13689;48.590;7.752;2023-12-20T13:46:54;6.55;;;1.83;;
25870;SDS011;13689;48.590;7.752;2023-12-20T13:49:19;10.35;;;2.40;;
25870;SDS011;13689;48.590;7.752;2023-12-20T13:51:46;8.00;;;1.65;;
25870;SDS011;13689;48.590;7.752;2023-12-20T13:54:12;7.70;;;1.58;;
25870;SDS011;13689;48.590;7.752;2023-12-20T13:56:38;11.43;;;1.48;;
25870;SDS011;13689;48.590;7.752;2023-12-20T13:59:03;7.63;;;1.15;;
25870;SDS011;13689;48.590;7.752;2023-12-20T14:01:29;14.23;;;1.60;;
25870;SDS011;13689;48.590;7.752;2023-12-20T14:03:55;9.18;;;1.80;;
25870;SDS011;13689;48.590;7.752;2023-12-20T14:06:20;8.60;;;1.50;;
25870;SDS011;13689;48.590;7.752;2023-12-20T14:08:46;12.55;;;1.88;;
25870;SDS011;13689;48.590;7.752;2023-12-20T14:11:13;14.65;;;1.98;;
25870;SDS011;13689;48.590;7.752;2023-12-20T14:13:40;10.55;;;2.30;;
25870;SDS011;13689;48.590;7.752;2023-12-20T14:16:06;7.90;;;1.80;;
25870;SDS011;13689;48.590;7.752;2023-12-20T14:18:32;11.75;;;2.00;;
25870;SDS011;13689;48.590;7.752;2023-12-20T14:20:57;6.63;;;1.60;;
25870;SDS011;13689;48.590;7.752;2023-12-20T14:23:23;11.63;;;2.13;;
25870;SDS011;13689;48.590;7.752;2023-12-20T14:25:48;9.93;;;1.63;;
25870;SDS011;13689;48.590;7.752;2023-12-20T14:28:14;8.00;;;1.52;;
25870;SDS011;13689;48.590;7.752;2023-12-20T14:30:40;14.70;;;1.75;;
25870;SDS011;13689;48.590;7.752;2023-12-20T14:33:05;11.50;;;2.38;;
25870;SDS011;13689;48.590;7.752;2023-12-20T14:35:31;7.95;;;1.77;;
25870;SDS011;13689;48.590;7.752;2023-12-20T14:37:57;10.02;;;2.00;;
25870;SDS011;13689;48.590;7.752;2023-12-20T14:40:23;5.88;;;1.70;;
25870;SDS011;13689;48.590;7.752;2023-12-20T14:42:48;7.32;;;1.45;;